sensor_id;sensor_type;location;lat;lon;timestamp;pressure;altitude;pressure_sealevel;temperature;humidity
25855;BME280;13680;49.936;11.344;2023-01-28T00:01:38;97269.06;;;1.66;75.15
25855;BME280;13680;49.936;11.344;2023-01-28T00:04:03;97264.91;;;1.70;75.19
25855;BME280;13680;49.936;11.344;2023-01-28T00:06:29;97265.72;;;1.83;74.99
25855;BME280;13680;49.936;11.344;2023-01-28T00:08:54;97267.78;;;1.92;74.21
25855;BME280;13680;49.936;11.344;2023-01-28T00:11:20;97273.56;;;2.01;74.33
25855;BME280;13680;49.936;11.344;2023-01-28T00:13:52;97269.75;;;1.97;74.04
25855;BME280;13680;49.936;11.344;2023-01-28T00:16:18;97271.38;;;1.98;74.22
25855;BME280;13680;49.936;11.344;2023-01-28T00:18:44;97265.34;;;1.67;75.52
25855;BME280;13680;49.936;11.344;2023-01-28T00:21:11;97272.84;;;1.82;75.26
25855;BME280;13680;49.936;11.344;2023-01-28T00:23:38;97273.56;;;2.01;74.75
25855;BME280;13680;49.936;11.344;2023-01-28T00:26:11;97265.59;;;1.89;74.50
25855;BME280;13680;49.936;11.344;2023-01-28T00:28:37;97279.00;;;1.83;74.75
25855;BME280;13680;49.936;11.344;2023-01-28T00:31:13;97268.34;;;2.06;74.23
25855;BME280;13680;49.936;11.344;2023-01-28T00:33:40;97266.38;;;1.54;76.31
25855;BME280;13680;49.936;11.344;2023-01-28T00:36:06;97268.34;;;1.71;75.69
25855;BME280;13680;49.936;11.344;2023-01-28T00:38:32;97276.88;;;1.61;76.65
25855;BME280;13680;49.936;11.344;2023-01-28T00:41:11;97270.47;;;2.04;74.39
25855;BME280;13680;49.936;11.344;2023-01-28T00:43:37;97271.13;;;1.64;75.93
25855;BME280;13680;49.936;11.344;2023-01-28T00:46:04;97265.03;;;1.75;75.56
25855;BME280;13680;49.936;11.344;2023-01-28T00:48:31;97269.63;;;1.92;75.07
25855;BME280;13680;49.936;11.344;2023-01-28T00:50:57;97266.28;;;1.85;75.07
25855;BME280;13680;49.936;11.344;2023-01-28T00:53:22;97270.16;;;1.46;75.70
25855;BME280;13680;49.936;11.344;2023-01-28T00:55:48;97267.88;;;1.62;76.20
25855;BME280;13680;49.936;11.344;2023-01-28T00:58:13;97270.53;;;1.62;75.76
25855;BME280;13680;49.936;11.344;2023-01-28T01:00:38;97270.56;;;1.74;75.43
25855;BME280;13680;49.936;11.344;2023-01-28T01:03:03;97270.22;;;1.94;74.97
25855;BME280;13680;49.936;11.344;2023-01-28T01:05:29;97266.06;;;1.98;74.55
25855;BME280;13680;49.936;11.344;2023-01-28T01:07:54;97272.75;;;2.01;74.90
25855;BME280;13680;49.936;11.344;2023-01-28T01:10:20;97267.78;;;1.69;75.45
25855;BME280;13680;49.936;11.344;2023-01-28T01:12:46;97276.31;;;1.71;76.29
25855;BME280;13680;49.936;11.344;2023-01-28T01:15:13;97271.47;;;1.79;75.66
25855;BME280;13680;49.936;11.344;2023-01-28T01:17:40;97277.00;;;1.78;75.41
25855;BME280;13680;49.936;11.344;2023-01-28T01:20:11;97269.97;;;1.84;75.77
25855;BME280;13680;49.936;11.344;2023-01-28T01:22:37;97274.94;;;1.80;75.69
25855;BME280;13680;49.936;11.344;2023-01-28T01:25:03;97265.03;;;1.87;75.11
25855;BME280;13680;49.936;11.344;2023-01-28T01:27:30;97273.88;;;1.57;76.89
25855;BME280;13680;49.936;11.344;2023-01-28T01:29:55;97274.38;;;1.66;76.93
25855;BME280;13680;49.936;11.344;2023-01-28T01:32:21;97278.28;;;1.87;76.11
25855;BME280;13680;49.936;11.344;2023-01-28T01:34:47;97276.66;;;1.62;77.13
25855;BME280;13680;49.936;11.344;2023-01-28T01:37:13;97286.44;;;1.62;77.42
25855;BME280;13680;49.936;11.344;2023-01-28T01:39:38;97284.50;;;1.69;77.22
25855;BME280;13680;49.936;11.344;2023-01-28T01:42:03;97288.41;;;1.78;76.84
25855;BME280;13680;49.936;11.344;2023-01-28T01:45:05;97294.31;;;1.80;76.71
25855;BME280;13680;49.936;11.344;2023-01-28T01:47:56;97295.16;;;1.39;78.58
25855;BME280;13680;49.936;11.344;2023-01-28T01:50:33;97297.88;;;1.86;77.07
25855;BME280;13680;49.936;11.344;2023-01-28T01:53:13;97306.88;;;1.97;76.44
25855;BME280;13680;49.936;11.344;2023-01-28T01:55:42;97303.88;;;1.82;76.59
25855;BME280;13680;49.936;11.344;2023-01-28T01:58:13;97303.97;;;1.63;78.29
25855;BME280;13680;49.936;11.344;2023-01-28T02:00:40;97304.91;;;1.80;77.41
25855;BME280;13680;49.936;11.344;2023-01-28T02:03:06;97303.88;;;1.70;78.15
25855;BME280;13680;49.936;11.344;2023-01-28T02:05:32;97302.38;;;1.98;77.46
25855;BME280;13680;49.936;11.344;2023-01-28T02:07:59;97303.53;;;1.78;78.24
25855;BME280;13680;49.936;11.344;2023-01-28T02:10:44;97303.28;;;1.91;77.77
25855;BME280;13680;49.936;11.344;2023-01-28T02:13:09;97296.34;;;1.55;79.23
25855;BME280;13680;49.936;11.344;2023-01-28T02:15:35;97302.25;;;1.69;80.00
25855;BME280;13680;49.936;11.344;2023-01-28T02:18:00;97298.91;;;1.73;79.95
25855;BME280;13680;49.936;11.344;2023-01-28T02:20:58;97293.69;;;1.55;80.07
25855;BME280;13680;49.936;11.344;2023-01-28T02:23:42;97304.00;;;1.75;79.97
25855;BME280;13680;49.936;11.344;2023-01-28T02:29:07;97300.16;;;1.59;80.40
25855;BME280;13680;49.936;11.344;2023-01-28T02:31:43;97309.44;;;1.80;79.45
25855;BME280;13680;49.936;11.344;2023-01-28T02:37:01;97305.94;;;1.68;80.29
25855;BME280;13680;49.936;11.344;2023-01-28T02:39:33;97306.09;;;1.96;78.82
25855;BME280;13680;49.936;11.344;2023-01-28T02:42:02;97305.69;;;1.69;79.50
25855;BME280;13680;49.936;11.344;2023-01-28T02:44:29;97308.13;;;1.71;79.91
25855;BME280;13680;49.936;11.344;2023-01-28T02:46:54;97314.97;;;2.02;79.04
25855;BME280;13680;49.936;11.344;2023-01-28T02:49:44;97306.78;;;1.92;79.07
25855;BME280;13680;49.936;11.344;2023-01-28T02:54:59;97322.34;;;2.00;78.55
25855;BME280;13680;49.936;11.344;2023-01-28T02:57:46;97316.59;;;2.03;78.10
25855;BME280;13680;49.936;11.344;2023-01-28T03:00:26;97317.97;;;2.06;78.30
25855;BME280;13680;49.936;11.344;2023-01-28T03:03:19;97309.66;;;2.02;77.79
25855;BME280;13680;49.936;11.344;2023-01-28T03:05:57;97314.59;;;2.10;77.65
25855;BME280;13680;49.936;11.344;2023-01-28T03:08:37;97320.56;;;1.58;79.10
25855;BME280;13680;49.936;11.344;2023-01-28T03:11:22;97309.50;;;1.61;79.21
25855;BME280;13680;49.936;11.344;2023-01-28T03:14:07;97313.09;;;1.91;78.49
25855;BME280;13680;49.936;11.344;2023-01-28T03:16:53;97313.78;;;1.86;78.34
25855;BME280;13680;49.936;11.344;2023-01-28T03:19:40;97309.06;;;1.76;78.98
25855;BME280;13680;49.936;11.344;2023-01-28T03:22:25;97319.78;;;1.93;78.43
25855;BME280;13680;49.936;11.344;2023-01-28T03:25:12;97319.13;;;1.98;77.95
25855;BME280;13680;49.936;11.344;2023-01-28T03:28:04;97314.81;;;1.73;78.77
25855;BME280;13680;49.936;11.344;2023-01-28T03:30:56;97311.28;;;2.03;78.00
25855;BME280;13680;49.936;11.344;2023-01-28T03:33:43;97319.00;;;2.17;77.22
25855;BME280;13680;49.936;11.344;2023-01-28T03:36:27;97319.25;;;2.03;78.03
25855;BME280;13680;49.936;11.344;2023-01-28T03:39:12;97321.66;;;1.93;77.86
25855;BME280;13680;49.936;11.344;2023-01-28T03:41:37;97323.50;;;2.04;77.31
25855;BME280;13680;49.936;11.344;2023-01-28T03:44:03;97324.50;;;1.91;77.62
25855;BME280;13680;49.936;11.344;2023-01-28T03:46:47;97327.31;;;2.08;77.21
25855;BME280;13680;49.936;11.344;2023-01-28T03:49:14;97330.19;;;2.07;77.51
25855;BME280;13680;49.936;11.344;2023-01-28T03:51:40;97327.78;;;2.17;76.97
25855;BME280;13680;49.936;11.344;2023-01-28T03:54:05;97330.41;;;2.29;76.84
25855;BME280;13680;49.936;11.344;2023-01-28T03:56:30;97335.03;;;2.22;76.53
25855;BME280;13680;49.936;11.344;2023-01-28T03:59:02;97335.50;;;2.19;76.86
25855;BME280;13680;49.936;11.344;2023-01-28T04:01:28;97335.63;;;2.24;77.00
25855;BME280;13680;49.936;11.344;2023-01-28T04:03:53;97335.59;;;2.36;76.43
25855;BME280;13680;49.936;11.344;2023-01-28T04:06:19;97341.50;;;2.38;76.17
25855;BME280;13680;49.936;11.344;2023-01-28T04:08:44;97344.03;;;2.33;76.09
25855;BME280;13680;49.936;11.344;2023-01-28T04:11:19;97342.88;;;2.17;76.50
25855;BME280;13680;49.936;11.344;2023-01-28T04:13:47;97345.75;;;2.15;76.31
25855;BME280;13680;49.936;11.344;2023-01-28T04:16:14;97354.19;;;2.24;76.78
25855;BME280;13680;49.936;11.344;2023-01-28T04:18:41;97351.97;;;2.09;76.90
25855;BME280;13680;49.936;11.344;2023-01-28T04:21:07;97353.72;;;2.27;76.54
25855;BME280;13680;49.936;11.344;2023-01-28T04:23:33;97351.41;;;2.31;76.63
25855;BME280;13680;49.936;11.344;2023-01-28T04:25:58;97353.28;;;2.30;76.49
25855;BME280;13680;49.936;11.344;2023-01-28T04:28:24;97350.84;;;2.40;76.02
25855;BME280;13680;49.936;11.344;2023-01-28T04:30:50;97361.34;;;2.35;75.66
25855;BME280;13680;49.936;11.344;2023-01-28T04:33:16;97361.22;;;2.30;75.64
25855;BME280;13680;49.936;11.344;2023-01-28T04:35:41;97358.09;;;2.33;75.80
25855;BME280;13680;49.936;11.344;2023-01-28T04:38:07;97354.31;;;2.29;76.37
25855;BME280;13680;49.936;11.344;2023-01-28T04:40:32;97355.88;;;1.83;78.23
25855;BME280;13680;49.936;11.344;2023-01-28T04:42:58;97348.84;;;2.00;78.16
25855;BME280;13680;49.936;11.344;2023-01-28T04:45:23;97353.84;;;2.20;77.47
25855;BME280;13680;49.936;11.344;2023-01-28T04:47:49;97350.94;;;2.22;77.41
25855;BME280;13680;49.936;11.344;2023-01-28T04:50:15;97356.38;;;2.15;77.12
25855;BME280;13680;49.936;11.344;2023-01-28T04:52:40;97360.66;;;2.28;76.71
25855;BME280;13680;49.936;11.344;2023-01-28T04:55:06;97354.19;;;2.24;76.86
25855;BME280;13680;49.936;11.344;2023-01-28T04:57:31;97362.13;;;2.36;76.96
25855;BME280;13680;49.936;11.344;2023-01-28T04:59:57;97364.56;;;2.37;76.80
25855;BME280;13680;49.936;11.344;2023-01-28T05:02:22;97365.25;;;2.44;76.53
25855;BME280;13680;49.936;11.344;2023-01-28T05:04:48;97359.94;;;2.44;76.37
25855;BME280;13680;49.936;11.344;2023-01-28T05:07:13;97361.09;;;2.37;76.37
25855;BME280;13680;49.936;11.344;2023-01-28T05:09:38;97360.75;;;2.33;76.92
25855;BME280;13680;49.936;11.344;2023-01-28T05:12:04;97362.25;;;2.29;77.24
25855;BME280;13680;49.936;11.344;2023-01-28T05:14:29;97358.31;;;1.84;78.43
25855;BME280;13680;49.936;11.344;2023-01-28T05:16:54;97363.19;;;1.99;77.73
25855;BME280;13680;49.936;11.344;2023-01-28T05:19:20;97369.06;;;2.13;77.80
25855;BME280;13680;49.936;11.344;2023-01-28T05:21:45;97370.06;;;2.00;78.09
25855;BME280;13680;49.936;11.344;2023-01-28T05:24:10;97376.03;;;1.72;78.91
25855;BME280;13680;49.936;11.344;2023-01-28T05:26:36;97370.63;;;1.78;78.68
25855;BME280;13680;49.936;11.344;2023-01-28T05:29:02;97368.19;;;1.65;79.31
25855;BME280;13680;49.936;11.344;2023-01-28T05:31:28;97374.34;;;1.17;79.27
25855;BME280;13680;49.936;11.344;2023-01-28T05:33:53;97369.53;;;1.56;78.49
25855;BME280;13680;49.936;11.344;2023-01-28T05:36:18;97377.88;;;1.71;77.25
25855;BME280;13680;49.936;11.344;2023-01-28T05:38:44;97372.41;;;1.24;79.92
25855;BME280;13680;49.936;11.344;2023-01-28T05:41:09;97376.03;;;1.41;79.67
25855;BME280;13680;49.936;11.344;2023-01-28T05:43:34;97374.25;;;1.54;78.77
25855;BME280;13680;49.936;11.344;2023-01-28T05:46:00;97372.25;;;1.79;77.80
25855;BME280;13680;49.936;11.344;2023-01-28T05:48:25;97366.13;;;1.79;77.52
25855;BME280;13680;49.936;11.344;2023-01-28T05:50:50;97380.00;;;1.93;76.97
25855;BME280;13680;49.936;11.344;2023-01-28T05:53:16;97382.06;;;1.91;76.57
25855;BME280;13680;49.936;11.344;2023-01-28T05:55:41;97385.31;;;1.93;76.66
25855;BME280;13680;49.936;11.344;2023-01-28T05:58:06;97377.78;;;1.47;77.89
25855;BME280;13680;49.936;11.344;2023-01-28T06:00:32;97373.13;;;1.73;77.66
25855;BME280;13680;49.936;11.344;2023-01-28T06:02:57;97373.00;;;1.68;77.88
25855;BME280;13680;49.936;11.344;2023-01-28T06:05:22;97375.84;;;1.85;76.81
25855;BME280;13680;49.936;11.344;2023-01-28T06:07:48;97386.66;;;1.84;76.67
25855;BME280;13680;49.936;11.344;2023-01-28T06:10:14;97393.34;;;1.86;75.81
25855;BME280;13680;49.936;11.344;2023-01-28T06:12:42;97385.97;;;1.76;76.38
25855;BME280;13680;49.936;11.344;2023-01-28T06:15:08;97397.69;;;1.38;77.34
25855;BME280;13680;49.936;11.344;2023-01-28T06:17:34;97395.44;;;1.54;77.16
25855;BME280;13680;49.936;11.344;2023-01-28T06:19:59;97394.56;;;1.60;76.51
25855;BME280;13680;49.936;11.344;2023-01-28T06:22:24;97408.19;;;1.75;75.96
25855;BME280;13680;49.936;11.344;2023-01-28T06:24:50;97404.56;;;1.58;76.83
25855;BME280;13680;49.936;11.344;2023-01-28T06:27:15;97405.72;;;1.62;76.54
25855;BME280;13680;49.936;11.344;2023-01-28T06:29:40;97408.44;;;1.74;76.17
25855;BME280;13680;49.936;11.344;2023-01-28T06:32:06;97409.97;;;1.82;75.60
25855;BME280;13680;49.936;11.344;2023-01-28T06:34:31;97417.13;;;1.93;74.95
25855;BME280;13680;49.936;11.344;2023-01-28T06:36:56;97414.78;;;1.85;74.75
25855;BME280;13680;49.936;11.344;2023-01-28T06:39:22;97431.53;;;1.85;75.38
25855;BME280;13680;49.936;11.344;2023-01-28T06:41:49;97428.22;;;2.02;74.94
25855;BME280;13680;49.936;11.344;2023-01-28T06:44:14;97431.44;;;2.04;74.65
25855;BME280;13680;49.936;11.344;2023-01-28T06:46:40;97431.13;;;2.12;74.35
25855;BME280;13680;49.936;11.344;2023-01-28T06:49:06;97434.81;;;2.11;74.11
25855;BME280;13680;49.936;11.344;2023-01-28T06:51:31;97436.69;;;2.22;73.94
25855;BME280;13680;49.936;11.344;2023-01-28T06:53:57;97440.47;;;2.15;74.05
25855;BME280;13680;49.936;11.344;2023-01-28T06:56:22;97439.16;;;1.93;74.17
25855;BME280;13680;49.936;11.344;2023-01-28T06:58:48;97438.72;;;2.08;73.84
25855;BME280;13680;49.936;11.344;2023-01-28T07:01:13;97445.78;;;2.15;73.87
25855;BME280;13680;49.936;11.344;2023-01-28T07:03:38;97446.75;;;1.90;73.68
25855;BME280;13680;49.936;11.344;2023-01-28T07:06:04;97456.31;;;1.60;74.44
25855;BME280;13680;49.936;11.344;2023-01-28T07:08:30;97448.06;;;1.99;73.87
25855;BME280;13680;49.936;11.344;2023-01-28T07:10:55;97454.44;;;1.79;73.59
25855;BME280;13680;49.936;11.344;2023-01-28T07:13:21;97452.81;;;1.78;73.46
25855;BME280;13680;49.936;11.344;2023-01-28T07:15:46;97461.72;;;1.84;72.96
25855;BME280;13680;49.936;11.344;2023-01-28T07:18:12;97464.09;;;1.25;74.66
25855;BME280;13680;49.936;11.344;2023-01-28T07:20:38;97464.28;;;1.60;73.59
25855;BME280;13680;49.936;11.344;2023-01-28T07:23:03;97463.13;;;1.87;73.03
25855;BME280;13680;49.936;11.344;2023-01-28T07:25:28;97480.72;;;1.13;73.71
25855;BME280;13680;49.936;11.344;2023-01-28T07:27:54;97484.31;;;1.38;73.43
25855;BME280;13680;49.936;11.344;2023-01-28T07:30:20;97476.31;;;1.26;73.01
25855;BME280;13680;49.936;11.344;2023-01-28T07:32:46;97472.28;;;1.05;73.23
25855;BME280;13680;49.936;11.344;2023-01-28T07:35:12;97471.03;;;1.26;72.46
25855;BME280;13680;49.936;11.344;2023-01-28T07:37:38;97472.03;;;1.43;72.47
25855;BME280;13680;49.936;11.344;2023-01-28T07:40:04;97473.16;;;1.17;72.06
25855;BME280;13680;49.936;11.344;2023-01-28T07:42:29;97477.75;;;1.77;70.29
25855;BME280;13680;49.936;11.344;2023-01-28T07:44:55;97474.97;;;1.54;70.02
25855;BME280;13680;49.936;11.344;2023-01-28T07:47:20;97478.69;;;0.97;71.22
25855;BME280;13680;49.936;11.344;2023-01-28T07:49:45;97487.56;;;1.40;70.13
25855;BME280;13680;49.936;11.344;2023-01-28T07:52:11;97476.59;;;1.36;71.19
25855;BME280;13680;49.936;11.344;2023-01-28T07:54:37;97481.09;;;0.98;72.80
25855;BME280;13680;49.936;11.344;2023-01-28T07:57:07;97483.44;;;1.44;70.65
25855;BME280;13680;49.936;11.344;2023-01-28T07:59:34;97481.03;;;1.24;71.60
25855;BME280;13680;49.936;11.344;2023-01-28T08:01:59;97490.00;;;1.04;72.17
25855;BME280;13680;49.936;11.344;2023-01-28T08:04:25;97496.41;;;1.15;72.53
25855;BME280;13680;49.936;11.344;2023-01-28T08:06:50;97491.13;;;1.15;72.50
25855;BME280;13680;49.936;11.344;2023-01-28T08:09:16;97483.97;;;1.16;71.54
25855;BME280;13680;49.936;11.344;2023-01-28T08:11:42;97491.03;;;1.03;72.82
25855;BME280;13680;49.936;11.344;2023-01-28T08:14:09;97488.81;;;1.37;71.50
25855;BME280;13680;49.936;11.344;2023-01-28T08:16:35;97502.53;;;1.34;71.59
25855;BME280;13680;49.936;11.344;2023-01-28T08:19:00;97491.78;;;1.10;71.66
25855;BME280;13680;49.936;11.344;2023-01-28T08:21:25;97497.53;;;1.44;70.95
25855;BME280;13680;49.936;11.344;2023-01-28T08:23:51;97494.69;;;1.58;69.91
25855;BME280;13680;49.936;11.344;2023-01-28T08:26:16;97509.44;;;1.54;69.19
25855;BME280;13680;49.936;11.344;2023-01-28T08:28:42;97511.25;;;2.02;68.32
25855;BME280;13680;49.936;11.344;2023-01-28T08:31:07;97497.72;;;2.22;67.22
25855;BME280;13680;49.936;11.344;2023-01-28T08:33:32;97511.63;;;2.06;67.97
25855;BME280;13680;49.936;11.344;2023-01-28T08:36:01;97510.22;;;2.03;67.31
25855;BME280;13680;49.936;11.344;2023-01-28T08:38:26;97508.56;;;2.21;66.91
25855;BME280;13680;49.936;11.344;2023-01-28T08:40:55;97501.66;;;2.32;66.65
25855;BME280;13680;49.936;11.344;2023-01-28T08:43:20;97503.88;;;2.47;65.82
25855;BME280;13680;49.936;11.344;2023-01-28T08:45:46;97505.84;;;2.51;64.92
25855;BME280;13680;49.936;11.344;2023-01-28T08:48:15;97508.97;;;2.48;64.90
25855;BME280;13680;49.936;11.344;2023-01-28T08:50:40;97516.50;;;2.63;65.31
25855;BME280;13680;49.936;11.344;2023-01-28T08:53:09;97514.28;;;2.60;64.81
25855;BME280;13680;49.936;11.344;2023-01-28T08:55:35;97516.81;;;1.82;66.48
25855;BME280;13680;49.936;11.344;2023-01-28T08:58:02;97534.16;;;2.15;66.65
25855;BME280;13680;49.936;11.344;2023-01-28T09:00:28;97529.06;;;2.13;65.95
25855;BME280;13680;49.936;11.344;2023-01-28T09:02:53;97523.66;;;2.20;65.73
25855;BME280;13680;49.936;11.344;2023-01-28T09:05:19;97534.00;;;2.40;65.68
25855;BME280;13680;49.936;11.344;2023-01-28T09:07:46;97537.38;;;1.87;66.17
25855;BME280;13680;49.936;11.344;2023-01-28T09:10:11;97538.59;;;2.03;66.43
25855;BME280;13680;49.936;11.344;2023-01-28T09:12:37;97536.69;;;1.61;67.73
25855;BME280;13680;49.936;11.344;2023-01-28T09:15:03;97549.13;;;2.09;66.73
25855;BME280;13680;49.936;11.344;2023-01-28T09:17:29;97548.50;;;1.77;67.28
25855;BME280;13680;49.936;11.344;2023-01-28T09:19:54;97542.13;;;1.66;67.43
25855;BME280;13680;49.936;11.344;2023-01-28T09:22:19;97553.47;;;2.04;66.98
25855;BME280;13680;49.936;11.344;2023-01-28T09:24:45;97549.31;;;2.38;65.68
25855;BME280;13680;49.936;11.344;2023-01-28T09:27:10;97548.34;;;1.90;66.61
25855;BME280;13680;49.936;11.344;2023-01-28T09:29:36;97552.31;;;1.81;67.15
25855;BME280;13680;49.936;11.344;2023-01-28T09:32:03;97559.78;;;2.21;65.36
25855;BME280;13680;49.936;11.344;2023-01-28T09:34:29;97558.22;;;1.83;66.24
25855;BME280;13680;49.936;11.344;2023-01-28T09:36:54;97564.00;;;2.10;65.69
25855;BME280;13680;49.936;11.344;2023-01-28T09:39:20;97566.75;;;2.34;64.53
25855;BME280;13680;49.936;11.344;2023-01-28T09:44:59;97557.09;;;2.52;63.76
25855;BME280;13680;49.936;11.344;2023-01-28T09:47:31;97555.06;;;2.66;63.12
25855;BME280;13680;49.936;11.344;2023-01-28T09:50:01;97556.88;;;2.65;63.67
25855;BME280;13680;49.936;11.344;2023-01-28T09:52:29;97555.97;;;2.71;64.64
25855;BME280;13680;49.936;11.344;2023-01-28T09:55:09;97560.84;;;2.74;63.59
25855;BME280;13680;49.936;11.344;2023-01-28T09:57:39;97567.38;;;2.48;63.77
25855;BME280;13680;49.936;11.344;2023-01-28T10:00:41;97564.59;;;2.55;63.83
25855;BME280;13680;49.936;11.344;2023-01-28T10:11:13;97571.13;;;2.71;63.30
25855;BME280;13680;49.936;11.344;2023-01-28T10:19:39;97564.28;;;2.63;63.09
25855;BME280;13680;49.936;11.344;2023-01-28T10:22:19;97563.28;;;2.03;63.47
25855;BME280;13680;49.936;11.344;2023-01-28T10:24:51;97566.50;;;2.05;65.58
25855;BME280;13680;49.936;11.344;2023-01-28T10:27:20;97563.44;;;2.51;64.03
25855;BME280;13680;49.936;11.344;2023-01-28T10:29:47;97568.00;;;2.01;63.83
25855;BME280;13680;49.936;11.344;2023-01-28T10:32:21;97569.06;;;1.44;66.00
25855;BME280;13680;49.936;11.344;2023-01-28T10:34:49;97558.59;;;1.87;65.40
25855;BME280;13680;49.936;11.344;2023-01-28T10:37:16;97573.41;;;1.94;65.30
25855;BME280;13680;49.936;11.344;2023-01-28T10:39:41;97565.47;;;2.06;64.31
25855;BME280;13680;49.936;11.344;2023-01-28T10:42:32;97570.03;;;2.48;62.55
25855;BME280;13680;49.936;11.344;2023-01-28T10:45:01;97563.47;;;2.62;62.46
25855;BME280;13680;49.936;11.344;2023-01-28T10:50:27;97568.53;;;2.52;62.96
25855;BME280;13680;49.936;11.344;2023-01-28T10:52:56;97571.50;;;2.44;62.61
25855;BME280;13680;49.936;11.344;2023-01-28T10:55:26;97574.41;;;2.42;63.33
25855;BME280;13680;49.936;11.344;2023-01-28T10:57:53;97570.63;;;2.50;62.96
25855;BME280;13680;49.936;11.344;2023-01-28T11:02:46;97567.38;;;2.18;64.12
25855;BME280;13680;49.936;11.344;2023-01-28T11:05:24;97569.94;;;2.24;64.44
25855;BME280;13680;49.936;11.344;2023-01-28T11:08:23;97569.94;;;1.94;64.90
25855;BME280;13680;49.936;11.344;2023-01-28T11:10:47;97567.22;;;1.82;65.43
25855;BME280;13680;49.936;11.344;2023-01-28T11:13:20;97581.00;;;1.72;65.72
25855;BME280;13680;49.936;11.344;2023-01-28T11:15:48;97567.25;;;1.63;66.37
25855;BME280;13680;49.936;11.344;2023-01-28T11:18:32;97570.94;;;2.54;63.59
25855;BME280;13680;49.936;11.344;2023-01-28T11:21:00;97574.66;;;1.55;66.00
25855;BME280;13680;49.936;11.344;2023-01-28T11:23:30;97583.41;;;1.92;64.95
25855;BME280;13680;49.936;11.344;2023-01-28T11:26:08;97569.81;;;1.70;65.97
25855;BME280;13680;49.936;11.344;2023-01-28T11:28:40;97571.78;;;2.24;64.62
25855;BME280;13680;49.936;11.344;2023-01-28T11:31:08;97570.41;;;1.72;66.24
25855;BME280;13680;49.936;11.344;2023-01-28T11:33:59;97562.97;;;2.54;63.67
25855;BME280;13680;49.936;11.344;2023-01-28T11:36:30;97568.25;;;2.84;63.10
25855;BME280;13680;49.936;11.344;2023-01-28T11:38:56;97575.97;;;2.74;62.80
25855;BME280;13680;49.936;11.344;2023-01-28T11:41:36;97563.97;;;3.19;61.73
25855;BME280;13680;49.936;11.344;2023-01-28T11:44:22;97585.19;;;2.29;63.78
25855;BME280;13680;49.936;11.344;2023-01-28T12:02:52;97565.34;;;2.86;61.83
25855;BME280;13680;49.936;11.344;2023-01-28T12:10:37;97571.13;;;1.79;64.62
25855;BME280;13680;49.936;11.344;2023-01-28T12:16:20;97562.59;;;2.08;65.07
25855;BME280;13680;49.936;11.344;2023-01-28T12:25:44;97564.56;;;1.82;65.37
25855;BME280;13680;49.936;11.344;2023-01-28T12:30:35;97554.78;;;1.64;66.16
25855;BME280;13680;49.936;11.344;2023-01-28T12:38:30;97559.72;;;1.79;65.62
25855;BME280;13680;49.936;11.344;2023-01-28T12:41:03;97561.84;;;1.52;65.97
25855;BME280;13680;49.936;11.344;2023-01-28T12:43:41;97562.09;;;1.06;67.90
25855;BME280;13680;49.936;11.344;2023-01-28T12:46:41;97547.94;;;1.56;67.53
25855;BME280;13680;49.936;11.344;2023-01-28T12:49:27;97548.09;;;1.80;66.39
25855;BME280;13680;49.936;11.344;2023-01-28T12:54:35;97549.63;;;1.32;67.20
25855;BME280;13680;49.936;11.344;2023-01-28T12:57:03;97548.38;;;1.35;67.74
25855;BME280;13680;49.936;11.344;2023-01-28T12:59:37;97552.06;;;0.90;69.81
25855;BME280;13680;49.936;11.344;2023-01-28T13:10:24;97552.50;;;0.87;68.85
25855;BME280;13680;49.936;11.344;2023-01-28T13:12:52;97551.69;;;0.61;69.23
25855;BME280;13680;49.936;11.344;2023-01-28T13:15:19;97557.38;;;1.08;67.75
25855;BME280;13680;49.936;11.344;2023-01-28T13:17:59;97563.31;;;1.29;68.26
25855;BME280;13680;49.936;11.344;2023-01-28T13:20:49;97564.03;;;1.18;67.63
25855;BME280;13680;49.936;11.344;2023-01-28T13:23:25;97573.94;;;1.04;67.87
25855;BME280;13680;49.936;11.344;2023-01-28T13:28:47;97582.84;;;1.09;67.77
25855;BME280;13680;49.936;11.344;2023-01-28T13:31:14;97578.09;;;0.42;69.65
25855;BME280;13680;49.936;11.344;2023-01-28T13:33:47;97581.69;;;1.05;67.83
25855;BME280;13680;49.936;11.344;2023-01-28T13:36:44;97574.00;;;0.72;68.41
25855;BME280;13680;49.936;11.344;2023-01-28T13:41:45;97578.22;;;1.05;67.41
25855;BME280;13680;49.936;11.344;2023-01-28T13:44:31;97575.41;;;1.00;67.07
25855;BME280;13680;49.936;11.344;2023-01-28T13:49:29;97575.84;;;0.71;66.14
25855;BME280;13680;49.936;11.344;2023-01-28T13:54:37;97581.50;;;1.00;66.56
25855;BME280;13680;49.936;11.344;2023-01-28T13:57:11;97588.84;;;0.98;66.36
25855;BME280;13680;49.936;11.344;2023-01-28T13:59:53;97589.94;;;0.90;66.54
25855;BME280;13680;49.936;11.344;2023-01-28T14:02:40;97588.75;;;0.86;66.48
25855;BME280;13680;49.936;11.344;2023-01-28T14:05:34;97599.66;;;0.39;67.25
25855;BME280;13680;49.936;11.344;2023-01-28T14:14:29;97617.69;;;0.17;67.24
25855;BME280;13680;49.936;11.344;2023-01-28T14:19:30;97621.66;;;0.40;66.83
25855;BME280;13680;49.936;11.344;2023-01-28T14:21:56;97631.16;;;0.09;66.22
25855;BME280;13680;49.936;11.344;2023-01-28T14:24:22;97628.97;;;0.38;65.70
25855;BME280;13680;49.936;11.344;2023-01-28T14:29:57;97617.44;;;0.64;64.97
25855;BME280;13680;49.936;11.344;2023-01-28T14:32:28;97627.69;;;0.54;65.24
25855;BME280;13680;49.936;11.344;2023-01-28T14:34:57;97627.34;;;-0.02;66.03
25855;BME280;13680;49.936;11.344;2023-01-28T14:37:29;97628.72;;;0.07;66.96
25855;BME280;13680;49.936;11.344;2023-01-28T14:40:05;97627.88;;;0.52;64.71
25855;BME280;13680;49.936;11.344;2023-01-28T14:42:38;97630.25;;;0.28;64.82
25855;BME280;13680;49.936;11.344;2023-01-28T14:48:23;97653.50;;;0.20;64.47
25855;BME280;13680;49.936;11.344;2023-01-28T14:51:09;97653.44;;;-0.32;67.42
25855;BME280;13680;49.936;11.344;2023-01-28T14:56:48;97655.47;;;-0.21;65.24
25855;BME280;13680;49.936;11.344;2023-01-28T14:59:19;97653.66;;;-0.27;66.38
25855;BME280;13680;49.936;11.344;2023-01-28T15:01:47;97653.16;;;-0.04;71.17
25855;BME280;13680;49.936;11.344;2023-01-28T15:04:28;97659.34;;;-0.30;65.81